sensor_id;sensor_type;location;lat;lon;timestamp;temperature;humidity
23083;DHT22;11709;52.420;10.538;2022-10-24T00:01:51;14.30;99.90
23083;DHT22;11709;52.420;10.538;2022-10-24T00:05:53;14.30;99.90
23083;DHT22;11709;52.420;10.538;2022-10-24T00:09:56;14.30;99.90
23083;DHT22;11709;52.420;10.538;2022-10-24T00:13:58;14.30;99.90
23083;DHT22;11709;52.420;10.538;2022-10-24T00:18:01;14.30;99.90
23083;DHT22;11709;52.420;10.538;2022-10-24T00:22:04;14.30;99.90
23083;DHT22;11709;52.420;10.538;2022-10-24T00:26:07;14.30;99.90
23083;DHT22;11709;52.420;10.538;2022-10-24T00:30:11;14.30;99.90
23083;DHT22;11709;52.420;10.538;2022-10-24T00:34:14;14.20;99.90
23083;DHT22;11709;52.420;10.538;2022-10-24T00:38:16;14.00;99.90
23083;DHT22;11709;52.420;10.538;2022-10-24T00:42:19;14.00;99.90
23083;DHT22;11709;52.420;10.538;2022-10-24T00:46:21;13.90;99.90
23083;DHT22;11709;52.420;10.538;2022-10-24T00:50:24;13.90;99.90
23083;DHT22;11709;52.420;10.538;2022-10-24T00:54:27;13.90;99.90
23083;DHT22;11709;52.420;10.538;2022-10-24T00:58:32;13.90;99.90
23083;DHT22;11709;52.420;10.538;2022-10-24T01:02:35;13.90;99.90
23083;DHT22;11709;52.420;10.538;2022-10-24T01:06:58;13.90;99.90
23083;DHT22;11709;52.420;10.538;2022-10-24T01:15:22;13.90;99.90
23083;DHT22;11709;52.420;10.538;2022-10-24T01:23:56;14.00;99.90
23083;DHT22;11709;52.420;10.538;2022-10-24T01:28:10;14.10;99.90
23083;DHT22;11709;52.420;10.538;2022-10-24T01:36:45;14.40;99.90
23083;DHT22;11709;52.420;10.538;2022-10-24T01:44:55;14.60;99.90
23083;DHT22;11709;52.420;10.538;2022-10-24T01:49:13;14.70;99.90
23083;DHT22;11709;52.420;10.538;2022-10-24T01:53:13;14.70;99.90
23083;DHT22;11709;52.420;10.538;2022-10-24T01:57:16;14.70;99.90
23083;DHT22;11709;52.420;10.538;2022-10-24T02:01:21;14.80;99.90
23083;DHT22;11709;52.420;10.538;2022-10-24T02:05:35;14.80;99.90
23083;DHT22;11709;52.420;10.538;2022-10-24T02:09:40;14.70;99.90
23083;DHT22;11709;52.420;10.538;2022-10-24T02:13:59;14.70;99.90
23083;DHT22;11709;52.420;10.538;2022-10-24T02:18:02;14.70;99.90
23083;DHT22;11709;52.420;10.538;2022-10-24T02:22:28;14.70;99.90
23083;DHT22;11709;52.420;10.538;2022-10-24T02:26:37;14.70;99.90
23083;DHT22;11709;52.420;10.538;2022-10-24T02:30:43;14.70;99.90
23083;DHT22;11709;52.420;10.538;2022-10-24T02:34:46;14.60;99.90
23083;DHT22;11709;52.420;10.538;2022-10-24T02:38:50;14.60;99.90
23083;DHT22;11709;52.420;10.538;2022-10-24T02:42:55;14.60;99.90
23083;DHT22;11709;52.420;10.538;2022-10-24T02:47:01;14.60;99.90
23083;DHT22;11709;52.420;10.538;2022-10-24T02:51:05;14.50;99.90
23083;DHT22;11709;52.420;10.538;2022-10-24T02:55:09;14.50;99.90
23083;DHT22;11709;52.420;10.538;2022-10-24T02:59:12;14.60;99.90
23083;DHT22;11709;52.420;10.538;2022-10-24T03:03:14;14.60;99.90
23083;DHT22;11709;52.420;10.538;2022-10-24T03:07:17;14.60;99.90
23083;DHT22;11709;52.420;10.538;2022-10-24T03:11:20;14.60;99.90
23083;DHT22;11709;52.420;10.538;2022-10-24T03:15:22;14.70;99.90
23083;DHT22;11709;52.420;10.538;2022-10-24T03:19:25;14.70;99.90
23083;DHT22;11709;52.420;10.538;2022-10-24T03:23:27;14.70;99.90
23083;DHT22;11709;52.420;10.538;2022-10-24T03:27:30;14.80;99.90
23083;DHT22;11709;52.420;10.538;2022-10-24T03:31:34;14.80;99.90
23083;DHT22;11709;52.420;10.538;2022-10-24T03:35:36;14.80;99.90
23083;DHT22;11709;52.420;10.538;2022-10-24T03:39:39;14.80;99.90
23083;DHT22;11709;52.420;10.538;2022-10-24T03:43:42;14.80;99.90
23083;DHT22;11709;52.420;10.538;2022-10-24T03:47:44;14.80;99.90
23083;DHT22;11709;52.420;10.538;2022-10-24T03:51:46;14.80;99.90
23083;DHT22;11709;52.420;10.538;2022-10-24T03:55:49;14.70;99.90
23083;DHT22;11709;52.420;10.538;2022-10-24T03:59:52;14.70;99.90
23083;DHT22;11709;52.420;10.538;2022-10-24T04:03:54;14.60;99.90
23083;DHT22;11709;52.420;10.538;2022-10-24T04:07:57;14.50;99.90
23083;DHT22;11709;52.420;10.538;2022-10-24T04:11:59;14.50;99.90
23083;DHT22;11709;52.420;10.538;2022-10-24T04:16:02;14.30;99.90
23083;DHT22;11709;52.420;10.538;2022-10-24T04:20:06;14.30;99.90
23083;DHT22;11709;52.420;10.538;2022-10-24T04:24:09;14.30;99.90
23083;DHT22;11709;52.420;10.538;2022-10-24T04:28:11;14.20;99.90
23083;DHT22;11709;52.420;10.538;2022-10-24T04:32:14;14.20;99.90
23083;DHT22;11709;52.420;10.538;2022-10-24T04:36:16;14.10;99.90
23083;DHT22;11709;52.420;10.538;2022-10-24T04:40:19;14.10;99.90
23083;DHT22;11709;52.420;10.538;2022-10-24T04:44:22;14.10;99.90
23083;DHT22;11709;52.420;10.538;2022-10-24T04:48:24;14.00;99.90
23083;DHT22;11709;52.420;10.538;2022-10-24T04:52:27;14.00;99.90
23083;DHT22;11709;52.420;10.538;2022-10-24T04:56:29;14.00;99.90
23083;DHT22;11709;52.420;10.538;2022-10-24T05:00:32;14.00;99.90
23083;DHT22;11709;52.420;10.538;2022-10-24T05:04:34;14.00;99.90
23083;DHT22;11709;52.420;10.538;2022-10-24T05:08:37;13.90;99.90
23083;DHT22;11709;52.420;10.538;2022-10-24T05:12:40;14.00;99.90
23083;DHT22;11709;52.420;10.538;2022-10-24T05:16:42;14.00;99.90
23083;DHT22;11709;52.420;10.538;2022-10-24T05:20:45;14.00;99.90
23083;DHT22;11709;52.420;10.538;2022-10-24T05:24:47;14.00;99.90
23083;DHT22;11709;52.420;10.538;2022-10-24T05:28:50;14.10;99.90
23083;DHT22;11709;52.420;10.538;2022-10-24T05:32:52;14.10;99.90
23083;DHT22;11709;52.420;10.538;2022-10-24T05:36:55;14.10;99.90
23083;DHT22;11709;52.420;10.538;2022-10-24T05:40:57;14.10;99.90
23083;DHT22;11709;52.420;10.538;2022-10-24T05:45:00;14.00;99.90
23083;DHT22;11709;52.420;10.538;2022-10-24T05:49:03;14.10;99.90
23083;DHT22;11709;52.420;10.538;2022-10-24T05:53:06;14.10;99.90
23083;DHT22;11709;52.420;10.538;2022-10-24T05:57:09;14.20;99.90
23083;DHT22;11709;52.420;10.538;2022-10-24T06:01:11;14.20;99.90
23083;DHT22;11709;52.420;10.538;2022-10-24T06:05:14;14.20;99.90
23083;DHT22;11709;52.420;10.538;2022-10-24T06:09:17;14.30;99.90
23083;DHT22;11709;52.420;10.538;2022-10-24T06:13:19;14.30;99.90
23083;DHT22;11709;52.420;10.538;2022-10-24T06:17:22;14.40;99.90
23083;DHT22;11709;52.420;10.538;2022-10-24T06:21:24;14.30;99.90
23083;DHT22;11709;52.420;10.538;2022-10-24T06:25:27;14.40;99.90
23083;DHT22;11709;52.420;10.538;2022-10-24T06:29:30;14.40;99.90
23083;DHT22;11709;52.420;10.538;2022-10-24T06:33:33;14.40;99.90
23083;DHT22;11709;52.420;10.538;2022-10-24T06:37:36;14.40;99.90
23083;DHT22;11709;52.420;10.538;2022-10-24T06:41:39;14.40;99.90
23083;DHT22;11709;52.420;10.538;2022-10-24T06:45:41;14.40;99.90
23083;DHT22;11709;52.420;10.538;2022-10-24T06:49:44;14.40;99.90
23083;DHT22;11709;52.420;10.538;2022-10-24T06:53:46;14.40;99.90
23083;DHT22;11709;52.420;10.538;2022-10-24T06:57:49;14.40;99.90
23083;DHT22;11709;52.420;10.538;2022-10-24T07:01:51;14.50;99.90
23083;DHT22;11709;52.420;10.538;2022-10-24T07:05:54;14.50;99.90
23083;DHT22;11709;52.420;10.538;2022-10-24T07:09:57;14.60;99.90
23083;DHT22;11709;52.420;10.538;2022-10-24T07:13:59;14.70;99.90
23083;DHT22;11709;52.420;10.538;2022-10-24T07:18:02;14.70;99.90
23083;DHT22;11709;52.420;10.538;2022-10-24T07:22:05;14.80;99.90
23083;DHT22;11709;52.420;10.538;2022-10-24T07:26:10;14.80;99.90
23083;DHT22;11709;52.420;10.538;2022-10-24T07:30:15;14.80;99.90
23083;DHT22;11709;52.420;10.538;2022-10-24T07:34:18;14.90;99.90
23083;DHT22;11709;52.420;10.538;2022-10-24T07:38:21;15.00;99.90
23083;DHT22;11709;52.420;10.538;2022-10-24T07:42:24;15.10;99.90
23083;DHT22;11709;52.420;10.538;2022-10-24T07:46:26;15.20;99.90
23083;DHT22;11709;52.420;10.538;2022-10-24T07:50:29;15.40;99.90
23083;DHT22;11709;52.420;10.538;2022-10-24T07:54:32;15.50;99.90
23083;DHT22;11709;52.420;10.538;2022-10-24T07:58:34;15.70;99.90
23083;DHT22;11709;52.420;10.538;2022-10-24T08:02:38;15.90;99.90
23083;DHT22;11709;52.420;10.538;2022-10-24T08:06:40;16.00;99.90
23083;DHT22;11709;52.420;10.538;2022-10-24T08:10:44;16.20;99.90
23083;DHT22;11709;52.420;10.538;2022-10-24T08:14:47;16.50;99.90
23083;DHT22;11709;52.420;10.538;2022-10-24T08:18:51;16.70;99.90
23083;DHT22;11709;52.420;10.538;2022-10-24T08:22:54;16.90;99.90
23083;DHT22;11709;52.420;10.538;2022-10-24T08:26:57;17.10;99.90
23083;DHT22;11709;52.420;10.538;2022-10-24T08:31:03;17.40;99.90
23083;DHT22;11709;52.420;10.538;2022-10-24T08:35:06;17.80;99.90
23083;DHT22;11709;52.420;10.538;2022-10-24T08:39:09;18.10;99.90
23083;DHT22;11709;52.420;10.538;2022-10-24T08:43:11;18.30;99.90
23083;DHT22;11709;52.420;10.538;2022-10-24T08:51:56;18.50;99.90
23083;DHT22;11709;52.420;10.538;2022-10-24T08:55:59;18.60;99.90
23083;DHT22;11709;52.420;10.538;2022-10-24T09:00:11;18.70;99.90
23083;DHT22;11709;52.420;10.538;2022-10-24T09:04:13;18.80;99.90
23083;DHT22;11709;52.420;10.538;2022-10-24T09:08:30;19.00;99.90
23083;DHT22;11709;52.420;10.538;2022-10-24T09:12:32;19.00;99.90
23083;DHT22;11709;52.420;10.538;2022-10-24T09:16:37;19.10;99.90
23083;DHT22;11709;52.420;10.538;2022-10-24T09:20:41;19.20;99.90
23083;DHT22;11709;52.420;10.538;2022-10-24T09:24:58;19.20;99.90
23083;DHT22;11709;52.420;10.538;2022-10-24T09:28:52;19.20;99.90
23083;DHT22;11709;52.420;10.538;2022-10-24T09:33:06;19.30;99.90
23083;DHT22;11709;52.420;10.538;2022-10-24T09:37:01;19.30;99.90
23083;DHT22;11709;52.420;10.538;2022-10-24T09:41:07;19.30;99.90
23083;DHT22;11709;52.420;10.538;2022-10-24T09:49:37;19.50;99.90
23083;DHT22;11709;52.420;10.538;2022-10-24T09:53:56;19.70;99.90
23083;DHT22;11709;52.420;10.538;2022-10-24T09:57:48;19.80;99.90
23083;DHT22;11709;52.420;10.538;2022-10-24T10:01:51;19.80;99.90
23083;DHT22;11709;52.420;10.538;2022-10-24T10:05:56;19.80;99.90
23083;DHT22;11709;52.420;10.538;2022-10-24T10:10:02;19.70;99.90
23083;DHT22;11709;52.420;10.538;2022-10-24T10:14:21;19.60;99.90
23083;DHT22;11709;52.420;10.538;2022-10-24T10:22:37;19.50;99.90
23083;DHT22;11709;52.420;10.538;2022-10-24T10:26:44;19.50;99.90
23083;DHT22;11709;52.420;10.538;2022-10-24T10:30:53;19.60;99.90
23083;DHT22;11709;52.420;10.538;2022-10-24T10:39:33;20.00;99.90
23083;DHT22;11709;52.420;10.538;2022-10-24T10:44:18;20.10;99.90
23083;DHT22;11709;52.420;10.538;2022-10-24T10:52:31;20.30;99.90
23083;DHT22;11709;52.420;10.538;2022-10-24T10:56:52;20.40;99.90
23083;DHT22;11709;52.420;10.538;2022-10-24T11:01:03;20.20;99.90
23083;DHT22;11709;52.420;10.538;2022-10-24T11:05:32;20.20;99.90
23083;DHT22;11709;52.420;10.538;2022-10-24T11:09:40;20.10;99.90
23083;DHT22;11709;52.420;10.538;2022-10-24T11:14:06;20.00;99.90
23083;DHT22;11709;52.420;10.538;2022-10-24T11:22:26;19.80;99.90
23083;DHT22;11709;52.420;10.538;2022-10-24T11:26:31;19.60;99.90
23083;DHT22;11709;52.420;10.538;2022-10-24T11:35:28;19.80;99.90
23083;DHT22;11709;52.420;10.538;2022-10-24T11:39:33;19.90;99.90
23083;DHT22;11709;52.420;10.538;2022-10-24T11:43:38;19.80;99.90
23083;DHT22;11709;52.420;10.538;2022-10-24T11:47:54;20.00;99.90
23083;DHT22;11709;52.420;10.538;2022-10-24T11:52:03;20.30;99.90
23083;DHT22;11709;52.420;10.538;2022-10-24T11:56:19;20.90;99.90
23083;DHT22;11709;52.420;10.538;2022-10-24T12:00:29;21.20;99.90
23083;DHT22;11709;52.420;10.538;2022-10-24T12:08:57;21.90;99.90
23083;DHT22;11709;52.420;10.538;2022-10-24T12:17:48;22.20;99.90
23083;DHT22;11709;52.420;10.538;2022-10-24T12:21:54;22.30;99.90
23083;DHT22;11709;52.420;10.538;2022-10-24T12:50:52;21.60;99.90
23083;DHT22;11709;52.420;10.538;2022-10-24T12:54:51;21.40;99.90
23083;DHT22;11709;52.420;10.538;2022-10-24T12:58:59;21.00;99.90
23083;DHT22;11709;52.420;10.538;2022-10-24T13:03:32;20.80;99.90
23083;DHT22;11709;52.420;10.538;2022-10-24T13:11:48;20.80;99.90
23083;DHT22;11709;52.420;10.538;2022-10-24T13:15:54;20.70;99.90
23083;DHT22;11709;52.420;10.538;2022-10-24T13:20:24;20.50;99.90
23083;DHT22;11709;52.420;10.538;2022-10-24T13:32:34;20.10;99.90
23083;DHT22;11709;52.420;10.538;2022-10-24T13:36:36;20.00;99.90
23083;DHT22;11709;52.420;10.538;2022-10-24T13:40:41;19.90;99.90
23083;DHT22;11709;52.420;10.538;2022-10-24T13:44:48;19.80;99.90
23083;DHT22;11709;52.420;10.538;2022-10-24T13:48:51;19.70;99.90
23083;DHT22;11709;52.420;10.538;2022-10-24T13:53:00;19.60;99.90
23083;DHT22;11709;52.420;10.538;2022-10-24T13:57:19;19.60;99.90
23083;DHT22;11709;52.420;10.538;2022-10-24T14:01:21;19.50;99.90
23083;DHT22;11709;52.420;10.538;2022-10-24T14:09:39;19.50;99.90
23083;DHT22;11709;52.420;10.538;2022-10-24T14:13:48;19.60;99.90
23083;DHT22;11709;52.420;10.538;2022-10-24T14:18:10;19.80;99.90
23083;DHT22;11709;52.420;10.538;2022-10-24T14:22:20;19.70;99.90
23083;DHT22;11709;52.420;10.538;2022-10-24T14:26:23;19.50;99.90
23083;DHT22;11709;52.420;10.538;2022-10-24T14:30:28;19.40;99.90
23083;DHT22;11709;52.420;10.538;2022-10-24T14:34:31;19.30;99.90
23083;DHT22;11709;52.420;10.538;2022-10-24T14:38:35;19.30;99.90
23083;DHT22;11709;52.420;10.538;2022-10-24T14:42:38;19.20;99.90
23083;DHT22;11709;52.420;10.538;2022-10-24T14:46:43;19.10;99.90
23083;DHT22;11709;52.420;10.538;2022-10-24T14:50:45;19.20;99.90
23083;DHT22;11709;52.420;10.538;2022-10-24T14:54:56;19.30;99.90
23083;DHT22;11709;52.420;10.538;2022-10-24T14:59:05;19.30;99.90
23083;DHT22;11709;52.420;10.538;2022-10-24T15:03:09;19.10;99.90
23083;DHT22;11709;52.420;10.538;2022-10-24T15:07:26;19.00;99.90
23083;DHT22;11709;52.420;10.538;2022-10-24T15:11:30;19.00;99.90
23083;DHT22;11709;52.420;10.538;2022-10-24T15:15:52;18.90;99.90
23083;DHT22;11709;52.420;10.538;2022-10-24T15:19:53;18.90;99.90
23083;DHT22;11709;52.420;10.538;2022-10-24T15:23:58;18.80;99.90
23083;DHT22;11709;52.420;10.538;2022-10-24T15:28:03;18.80;99.90
23083;DHT22;11709;52.420;10.538;2022-10-24T15:32:08;18.70;99.90
23083;DHT22;11709;52.420;10.538;2022-10-24T15:36:23;18.70;99.90
23083;DHT22;11709;52.420;10.538;2022-10-24T15:40:31;18.60;99.90
23083;DHT22;11709;52.420;10.538;2022-10-24T15:44:34;18.50;99.90
23083;DHT22;11709;52.420;10.538;2022-10-24T15:48:37;18.50;99.90
23083;DHT22;11709;52.420;10.538;2022-10-24T15:52:40;18.50;99.90
23083;DHT22;11709;52.420;10.538;2022-10-24T15:56:42;18.40;99.90
23083;DHT22;11709;52.420;10.538;2022-10-24T16:00:45;18.40;99.90
23083;DHT22;11709;52.420;10.538;2022-10-24T16:04:48;18.30;99.90
23083;DHT22;11709;52.420;10.538;2022-10-24T16:08:51;18.30;99.90
23083;DHT22;11709;52.420;10.538;2022-10-24T16:12:53;18.20;99.90
23083;DHT22;11709;52.420;10.538;2022-10-24T16:16:56;18.20;99.90
23083;DHT22;11709;52.420;10.538;2022-10-24T16:20:59;18.20;99.90
23083;DHT22;11709;52.420;10.538;2022-10-24T16:25:02;18.10;99.90
23083;DHT22;11709;52.420;10.538;2022-10-24T16:29:05;18.00;99.90
23083;DHT22;11709;52.420;10.538;2022-10-24T16:33:07;18.00;99.90
23083;DHT22;11709;52.420;10.538;2022-10-24T16:37:10;17.90;99.90
23083;DHT22;11709;52.420;10.538;2022-10-24T16:41:19;17.80;99.90
23083;DHT22;11709;52.420;10.538;2022-10-24T16:45:19;17.70;99.90
23083;DHT22;11709;52.420;10.538;2022-10-24T16:49:21;17.60;99.90
23083;DHT22;11709;52.420;10.538;2022-10-24T16:53:29;17.60;99.90
23083;DHT22;11709;52.420;10.538;2022-10-24T16:57:28;17.50;99.90
23083;DHT22;11709;52.420;10.538;2022-10-24T17:01:31;17.50;99.90
23083;DHT22;11709;52.420;10.538;2022-10-24T17:05:33;17.50;99.90
23083;DHT22;11709;52.420;10.538;2022-10-24T17:09:36;17.40;99.90
23083;DHT22;11709;52.420;10.538;2022-10-24T17:13:38;17.40;99.90
23083;DHT22;11709;52.420;10.538;2022-10-24T17:17:41;17.40;99.90
23083;DHT22;11709;52.420;10.538;2022-10-24T17:21:46;17.30;99.90
23083;DHT22;11709;52.420;10.538;2022-10-24T17:25:49;17.30;99.90
23083;DHT22;11709;52.420;10.538;2022-10-24T17:29:52;17.30;99.90
23083;DHT22;11709;52.420;10.538;2022-10-24T17:33:54;17.20;99.90
23083;DHT22;11709;52.420;10.538;2022-10-24T17:38:06;17.10;99.90
23083;DHT22;11709;52.420;10.538;2022-10-24T17:42:09;17.10;99.90
23083;DHT22;11709;52.420;10.538;2022-10-24T17:46:12;17.00;99.90
23083;DHT22;11709;52.420;10.538;2022-10-24T17:50:16;17.00;99.90
23083;DHT22;11709;52.420;10.538;2022-10-24T17:54:18;16.90;99.90
23083;DHT22;11709;52.420;10.538;2022-10-24T17:58:21;16.90;99.90
23083;DHT22;11709;52.420;10.538;2022-10-24T18:02:23;16.80;99.90
23083;DHT22;11709;52.420;10.538;2022-10-24T18:06:26;16.80;99.90
23083;DHT22;11709;52.420;10.538;2022-10-24T18:10:28;16.70;99.90
23083;DHT22;11709;52.420;10.538;2022-10-24T18:14:31;16.70;99.90
23083;DHT22;11709;52.420;10.538;2022-10-24T18:18:34;16.60;99.90
23083;DHT22;11709;52.420;10.538;2022-10-24T18:22:37;16.60;99.90
23083;DHT22;11709;52.420;10.538;2022-10-24T18:26:39;16.60;99.90
23083;DHT22;11709;52.420;10.538;2022-10-24T18:30:42;16.50;99.90
23083;DHT22;11709;52.420;10.538;2022-10-24T18:34:45;16.50;99.90
23083;DHT22;11709;52.420;10.538;2022-10-24T18:38:50;16.50;99.90
23083;DHT22;11709;52.420;10.538;2022-10-24T18:42:56;16.50;99.90
23083;DHT22;11709;52.420;10.538;2022-10-24T18:47:04;16.40;99.90
23083;DHT22;11709;52.420;10.538;2022-10-24T18:51:45;16.40;99.90
23083;DHT22;11709;52.420;10.538;2022-10-24T18:55:20;16.40;99.90
23083;DHT22;11709;52.420;10.538;2022-10-24T18:59:23;16.30;99.90
23083;DHT22;11709;52.420;10.538;2022-10-24T19:07:31;16.20;99.90
23083;DHT22;11709;52.420;10.538;2022-10-24T19:11:34;16.10;99.90
23083;DHT22;11709;52.420;10.538;2022-10-24T19:15:42;16.10;99.90
23083;DHT22;11709;52.420;10.538;2022-10-24T19:19:45;16.00;99.90
23083;DHT22;11709;52.420;10.538;2022-10-24T19:23:48;15.90;99.90
23083;DHT22;11709;52.420;10.538;2022-10-24T19:27:51;15.80;99.90
23083;DHT22;11709;52.420;10.538;2022-10-24T19:31:54;15.80;99.90
23083;DHT22;11709;52.420;10.538;2022-10-24T19:36:00;15.80;99.90
23083;DHT22;11709;52.420;10.538;2022-10-24T19:40:01;15.70;99.90
23083;DHT22;11709;52.420;10.538;2022-10-24T19:44:03;15.60;99.90
23083;DHT22;11709;52.420;10.538;2022-10-24T19:48:06;15.60;99.90
23083;DHT22;11709;52.420;10.538;2022-10-24T19:52:09;15.50;99.90
23083;DHT22;11709;52.420;10.538;2022-10-24T19:56:21;15.50;99.90
23083;DHT22;11709;52.420;10.538;2022-10-24T20:00:20;15.40;99.90
23083;DHT22;11709;52.420;10.538;2022-10-24T20:04:23;15.40;99.90
23083;DHT22;11709;52.420;10.538;2022-10-24T20:08:25;15.30;99.90
23083;DHT22;11709;52.420;10.538;2022-10-24T20:12:28;15.30;99.90
23083;DHT22;11709;52.420;10.538;2022-10-24T20:16:31;15.30;99.90
23083;DHT22;11709;52.420;10.538;2022-10-24T20:20:35;15.30;99.90
23083;DHT22;11709;52.420;10.538;2022-10-24T20:24:37;15.20;99.90
23083;DHT22;11709;52.420;10.538;2022-10-24T20:28:42;15.20;99.90
23083;DHT22;11709;52.420;10.538;2022-10-24T20:32:45;15.20;99.90
23083;DHT22;11709;52.420;10.538;2022-10-24T20:36:47;15.10;99.90
23083;DHT22;11709;52.420;10.538;2022-10-24T20:40:50;15.10;99.90
23083;DHT22;11709;52.420;10.538;2022-10-24T20:44:52;15.10;99.90
23083;DHT22;11709;52.420;10.538;2022-10-24T20:48:55;15.10;99.90
23083;DHT22;11709;52.420;10.538;2022-10-24T20:52:58;15.00;99.90
23083;DHT22;11709;52.420;10.538;2022-10-24T20:57:00;15.10;99.90
23083;DHT22;11709;52.420;10.538;2022-10-24T21:01:12;15.00;99.90
23083;DHT22;11709;52.420;10.538;2022-10-24T21:05:11;15.10;99.90
23083;DHT22;11709;52.420;10.538;2022-10-24T21:09:15;15.00;99.90
23083;DHT22;11709;52.420;10.538;2022-10-24T21:13:18;15.00;99.90
23083;DHT22;11709;52.420;10.538;2022-10-24T21:17:20;15.00;99.90
23083;DHT22;11709;52.420;10.538;2022-10-24T21:21:24;14.90;99.90
23083;DHT22;11709;52.420;10.538;2022-10-24T21:25:26;14.90;99.90
23083;DHT22;11709;52.420;10.538;2022-10-24T21:29:29;14.90;99.90
23083;DHT22;11709;52.420;10.538;2022-10-24T21:33:32;14.90;99.90
23083;DHT22;11709;52.420;10.538;2022-10-24T21:37:35;14.80;99.90
23083;DHT22;11709;52.420;10.538;2022-10-24T21:41:37;14.80;99.90
23083;DHT22;11709;52.420;10.538;2022-10-24T21:45:40;14.70;99.90
23083;DHT22;11709;52.420;10.538;2022-10-24T21:49:42;14.70;99.90
23083;DHT22;11709;52.420;10.538;2022-10-24T21:53:47;14.60;99.90
23083;DHT22;11709;52.420;10.538;2022-10-24T21:57:50;14.60;99.90
23083;DHT22;11709;52.420;10.538;2022-10-24T22:01:52;14.50;99.90
23083;DHT22;11709;52.420;10.538;2022-10-24T22:05:56;14.50;99.90
23083;DHT22;11709;52.420;10.538;2022-10-24T22:09:58;14.50;99.90
23083;DHT22;11709;52.420;10.538;2022-10-24T22:14:02;14.50;99.90
23083;DHT22;11709;52.420;10.538;2022-10-24T22:18:05;14.50;99.90
23083;DHT22;11709;52.420;10.538;2022-10-24T22:22:07;14.60;99.90
23083;DHT22;11709;52.420;10.538;2022-10-24T22:26:10;14.50;99.90
23083;DHT22;11709;52.420;10.538;2022-10-24T22:30:14;14.50;99.90
23083;DHT22;11709;52.420;10.538;2022-10-24T22:34:19;14.60;99.90
23083;DHT22;11709;52.420;10.538;2022-10-24T22:38:22;14.50;99.90
23083;DHT22;11709;52.420;10.538;2022-10-24T22:42:24;14.60;99.90
23083;DHT22;11709;52.420;10.538;2022-10-24T22:46:49;14.60;99.90
23083;DHT22;11709;52.420;10.538;2022-10-24T22:50:50;14.60;99.90
23083;DHT22;11709;52.420;10.538;2022-10-24T22:54:57;14.60;99.90
23083;DHT22;11709;52.420;10.538;2022-10-24T22:59:00;14.60;99.90
23083;DHT22;11709;52.420;10.538;2022-10-24T23:03:15;14.70;99.90
23083;DHT22;11709;52.420;10.538;2022-10-24T23:11:34;14.70;99.90
23083;DHT22;11709;52.420;10.538;2022-10-24T23:15:37;14.70;99.90
23083;DHT22;11709;52.420;10.538;2022-10-24T23:19:45;14.60;99.90
23083;DHT22;11709;52.420;10.538;2022-10-24T23:23:48;14.60;99.90
23083;DHT22;11709;52.420;10.538;2022-10-24T23:27:56;14.50;99.90
23083;DHT22;11709;52.420;10.538;2022-10-24T23:31:56;14.50;99.90
23083;DHT22;11709;52.420;10.538;2022-10-24T23:35:59;14.40;99.90
23083;DHT22;11709;52.420;10.538;2022-10-24T23:44:19;14.40;99.90
23083;DHT22;11709;52.420;10.538;2022-10-24T23:48:35;14.40;99.90
23083;DHT22;11709;52.420;10.538;2022-10-24T23:56:56;14.40;99.90
